Time;durP1;ratioP1;P1;durP2;ratioP2;P2;SDS_P1;SDS_P2;PMS_P1;PMS_P2;Temp;Humidity;BMP_temperature;BMP_pressure;BME280_temperature;BME280_humidity;BME280_pressure;Samples;Min_cycle;Max_cycle;Signal;HPM_P1;HPM_P2
2024/02/03 00:00:55;;;;;;;76.97;71.28;;;;;;;-3.05;100.00;102072.47;5007123;28;20540;-65
2024/02/03 00:03:22;;;;;;;79.88;73.68;;;;;;;-3.05;100.00;102065.50;5011788;28;20490;-66
2024/02/03 00:05:49;;;;;;;73.32;67.38;;;;;;;-3.08;100.00;102070.88;5005774;28;20104;-66
2024/02/03 00:08:16;;;;;;;65.38;60.08;;;;;;;-2.95;100.00;102073.63;5005701;28;20141;-66
2024/02/03 00:10:43;;;;;;;79.28;72.97;;;;;;;-2.98;100.00;102062.56;5008302;28;20490;-66
2024/02/03 00:13:12;;;;;;;87.22;80.82;;;;;;;-3.26;100.00;102061.47;5004259;28;20058;-65
2024/02/03 00:15:39;;;;;;;80.07;73.07;;;;;;;-3.30;100.00;102063.41;5000211;28;20050;-66
2024/02/03 00:18:06;;;;;;;67.38;61.80;;;;;;;-3.61;100.00;102063.38;5006821;28;20061;-66
2024/02/03 00:20:33;;;;;;;62.53;57.53;;;;;;;-3.60;100.00;102065.91;5009312;28;20049;-66
2024/02/03 00:23:00;;;;;;;64.85;59.65;;;;;;;-3.38;100.00;102069.94;5010373;28;20882;-65
2024/02/03 00:25:27;;;;;;;66.07;60.70;;;;;;;-3.63;100.00;102065.19;5005264;28;20382;-66
2024/02/03 00:27:54;;;;;;;70.07;64.65;;;;;;;-3.49;100.00;102063.53;5006227;28;20509;-65
2024/02/03 00:30:22;;;;;;;63.17;58.33;;;;;;;-3.53;100.00;102067.25;5019637;28;20089;-66
2024/02/03 00:32:49;;;;;;;60.15;55.35;;;;;;;-3.27;100.00;102068.44;5009632;28;20565;-65
2024/02/03 00:35:16;;;;;;;61.38;56.58;;;;;;;-3.36;100.00;102065.47;5000626;28;20108;-65
2024/02/03 00:37:45;;;;;;;69.30;64.10;;;;;;;-3.56;100.00;102063.97;5002966;28;20053;-65
2024/02/03 00:40:13;;;;;;;71.32;66.03;;;;;;;-3.60;100.00;102065.91;5003596;28;20049;-65
2024/02/03 00:42:42;;;;;;;75.82;70.22;;;;;;;-3.65;100.00;102061.88;5005506;28;20050;-65
2024/02/03 00:45:09;;;;;;;63.88;58.70;;;;;;;-3.76;100.00;102065.00;4998582;28;20057;-67
2024/02/03 00:47:38;;;;;;;69.63;63.65;;;;;;;-3.86;100.00;102063.81;5002250;28;20049;-68
2024/02/03 00:50:05;;;;;;;68.38;63.08;;;;;;;-3.90;100.00;102063.16;5016730;28;20058;-67
2024/02/03 00:52:32;;;;;;;63.58;58.58;;;;;;;-3.79;100.00;102060.81;5007341;28;20053;-67
2024/02/03 00:54:59;;;;;;;60.47;55.47;;;;;;;-3.58;100.00;102064.03;5003580;28;20104;-67
2024/02/03 00:57:26;;;;;;;58.45;53.95;;;;;;;-3.54;100.00;102050.00;5004357;28;20054;-67
2024/02/03 00:59:53;;;;;;;75.38;70.07;;;;;;;-3.43;100.00;102062.38;5004997;28;20157;-67
2024/02/03 01:02:20;;;;;;;83.72;78.13;;;;;;;-3.32;100.00;102062.66;5001890;28;20053;-67
2024/02/03 01:04:49;;;;;;;60.42;55.72;;;;;;;-3.44;100.00;102055.53;5009593;28;20127;-67
2024/02/03 01:07:16;;;;;;;57.72;53.00;;;;;;;-3.52;100.00;102057.69;4998035;28;20050;-67
2024/02/03 01:09:42;;;;;;;60.10;55.50;;;;;;;-3.40;100.00;102051.00;5010936;28;20049;-67
2024/02/03 01:12:10;;;;;;;60.20;55.38;;;;;;;-3.39;100.00;102048.28;5009408;28;20058;-67
2024/02/03 01:14:37;;;;;;;69.95;65.03;;;;;;;-3.45;100.00;102053.81;5005991;28;20549;-66
2024/02/03 01:17:05;;;;;;;69.70;64.50;;;;;;;-3.23;100.00;102040.53;5004113;28;20716;-66
2024/02/03 01:19:32;;;;;;;73.50;68.25;;;;;;;-3.13;100.00;102040.84;5008189;28;20088;-65
2024/02/03 01:22:00;;;;;;;70.70;65.18;;;;;;;-3.05;100.00;102039.50;5013155;28;20068;-66
2024/02/03 01:24:28;;;;;;;66.43;61.45;;;;;;;-2.93;100.00;102039.75;5004193;28;20437;-66
2024/02/03 01:26:55;;;;;;;64.07;58.88;;;;;;;-2.74;100.00;102044.75;5002376;28;20112;-66
2024/02/03 01:29:22;;;;;;;66.30;61.13;;;;;;;-2.79;100.00;102030.22;5007982;28;20503;-65
2024/02/03 01:31:49;;;;;;;65.93;60.75;;;;;;;-2.67;100.00;102027.84;5011103;28;20057;-65
2024/02/03 01:34:16;;;;;;;73.45;67.95;;;;;;;-2.77;100.00;102015.38;5000945;28;20132;-66
2024/02/03 01:36:43;;;;;;;67.45;62.15;;;;;;;-2.83;100.00;102023.53;5000664;28;20137;-65
2024/02/03 01:39:12;;;;;;;73.18;67.53;;;;;;;-3.00;100.00;102024.47;5002241;28;20825;-66
2024/02/03 01:41:39;;;;;;;73.07;67.38;;;;;;;-2.95;100.00;102021.63;5002216;28;20046;-65
2024/02/03 01:44:06;;;;;;;80.00;73.90;;;;;;;-3.25;100.00;102013.78;5006155;28;20053;-66
2024/02/03 01:46:34;;;;;;;69.22;63.92;;;;;;;-3.00;100.00;102014.06;4998800;28;20125;-65
2024/02/03 01:49:01;;;;;;;78.13;72.25;;;;;;;-2.97;100.00;102015.66;5003275;28;20057;-66
2024/02/03 01:51:28;;;;;;;67.35;62.15;;;;;;;-2.86;100.00;102017.69;5007221;28;20052;-67
2024/02/03 01:53:57;;;;;;;68.25;63.15;;;;;;;-2.93;100.00;102009.38;5002209;28;20136;-65
2024/02/03 01:56:25;;;;;;;72.40;66.85;;;;;;;-2.93;100.00;102014.59;5005706;28;20752;-66
2024/02/03 01:58:53;;;;;;;68.78;63.47;;;;;;;-3.05;100.00;102016.13;5004614;28;20060;-65
2024/02/03 02:01:20;;;;;;;78.43;72.72;;;;;;;-3.01;100.00;102011.56;5009193;28;20952;-66
2024/02/03 02:03:47;;;;;;;63.40;58.28;;;;;;;-3.01;100.00;102008.97;5004028;28;20058;-65
2024/02/03 02:06:14;;;;;;;62.33;57.35;;;;;;;-2.79;100.00;102006.00;5011176;28;20053;-67
2024/02/03 02:08:41;;;;;;;79.38;73.93;;;;;;;-2.49;100.00;102005.97;4998851;28;20049;-67
2024/02/03 02:11:08;;;;;;;81.53;75.72;;;;;;;-2.77;100.00;102004.16;4997676;28;20060;-67
2024/02/03 02:13:37;;;;;;;84.05;77.80;;;;;;;-2.68;100.00;102003.63;5011666;28;20060;-67
2024/02/03 02:16:05;;;;;;;81.63;75.82;;;;;;;-2.33;100.00;101998.09;5016294;28;20639;-67
2024/02/03 02:18:32;;;;;;;86.68;80.47;;;;;;;-2.69;100.00;102001.94;4996181;28;20488;-67
2024/02/03 02:21:00;;;;;;;81.30;75.13;;;;;;;-2.47;100.00;102003.31;5004291;28;20506;-67
2024/02/03 02:23:27;;;;;;;83.00;76.90;;;;;;;-2.48;100.00;102001.59;5007268;28;20042;-67
2024/02/03 02:25:55;;;;;;;86.97;80.65;;;;;;;-2.35;100.00;101985.19;4999913;28;20571;-67
2024/02/03 02:28:22;;;;;;;101.55;94.75;;;;;;;-2.21;100.00;101992.19;5003743;28;20061;-67
2024/02/03 02:30:49;;;;;;;89.13;82.75;;;;;;;-2.07;100.00;102000.00;5014317;28;20045;-67
2024/02/03 02:33:16;;;;;;;97.03;90.25;;;;;;;-2.46;100.00;101987.59;4996619;28;20058;-67
2024/02/03 02:35:46;;;;;;;121.93;114.03;;;;;;;-1.92;100.00;101992.19;5003381;28;20145;-66
2024/02/03 02:38:14;;;;;;;90.40;84.00;;;;;;;-2.53;100.00;101973.28;4995285;28;20049;-66
2024/02/03 02:40:41;;;;;;;86.03;79.95;;;;;;;-2.48;100.00;101970.38;5000054;28;20072;-66
2024/02/03 02:43:08;;;;;;;96.45;90.15;;;;;;;-2.61;100.00;101957.25;4999377;28;20064;-66
2024/02/03 02:45:35;;;;;;;92.57;86.57;;;;;;;-1.92;100.00;101968.75;5002937;28;20042;-67
2024/02/03 02:48:02;;;;;;;72.60;67.25;;;;;;;-2.48;100.00;101962.56;4997323;28;20133;-66
2024/02/03 02:50:29;;;;;;;92.63;85.93;;;;;;;-1.77;100.00;101967.81;5004289;28;20050;-65
2024/02/03 02:52:56;;;;;;;92.55;86.03;;;;;;;-2.10;100.00;101962.91;5004622;28;20470;-67
2024/02/03 02:55:24;;;;;;;84.45;78.47;;;;;;;-1.59;100.00;101958.00;5006670;28;20518;-66
2024/02/03 02:57:51;;;;;;;94.97;88.40;;;;;;;-1.64;100.00;101958.28;4998210;28;20056;-67
2024/02/03 03:00:19;;;;;;;93.55;86.82;;;;;;;-2.29;100.00;101954.53;5000808;28;20596;-65
2024/02/03 03:02:46;;;;;;;79.88;74.18;;;;;;;-2.40;100.00;101956.00;5004248;28;20468;-65
2024/02/03 03:05:13;;;;;;;88.85;82.75;;;;;;;-1.81;100.00;101965.50;4999680;28;20062;-67
2024/02/03 03:07:40;;;;;;;82.88;76.20;;;;;;;-2.27;100.00;101961.28;4997020;28;20053;-67
2024/02/03 03:10:08;;;;;;;68.15;62.85;;;;;;;-2.27;100.00;101956.09;5000988;28;20502;-66
2024/02/03 03:12:37;;;;;;;74.38;68.68;;;;;;;-2.11;100.00;101956.84;5009861;28;20493;-66
2024/02/03 03:15:04;;;;;;;74.53;68.93;;;;;;;-2.32;100.00;101956.38;4995729;28;20137;-66
2024/02/03 03:17:31;;;;;;;90.63;84.07;;;;;;;-2.42;100.00;101960.47;5004703;28;20141;-67
2024/02/03 03:20:00;;;;;;;79.20;73.47;;;;;;;-1.91;100.00;101966.03;5005629;28;20072;-67
2024/02/03 03:22:28;;;;;;;78.20;72.32;;;;;;;-2.01;100.00;101962.34;5003796;28;20054;-67
2024/02/03 03:24:54;;;;;;;80.38;74.40;;;;;;;-1.48;100.00;101955.56;5002938;28;20057;-67
2024/02/03 03:27:21;;;;;;;91.82;85.32;;;;;;;-1.63;100.00;101948.72;4995412;28;20058;-67
2024/02/03 03:29:50;;;;;;;87.63;81.32;;;;;;;-1.54;100.00;101948.13;5001676;28;20415;-67
2024/02/03 03:32:17;;;;;;;88.72;82.40;;;;;;;-1.69;100.00;101955.13;5000854;28;20057;-67
2024/02/03 03:34:44;;;;;;;144.23;130.18;;;;;;;-1.31;100.00;101964.06;5000240;28;20054;-67
2024/02/03 03:37:11;;;;;;;117.95;107.97;;;;;;;-1.99;100.00;101954.44;5004465;28;20541;-66
2024/02/03 03:39:38;;;;;;;81.13;74.35;;;;;;;-2.50;100.00;101954.88;5014032;28;20053;-66
2024/02/03 03:42:05;;;;;;;74.00;67.65;;;;;;;-2.57;100.00;101951.81;5008871;28;20053;-65
2024/02/03 03:44:32;;;;;;;71.53;66.10;;;;;;;-2.61;100.00;101946.88;5011129;28;20050;-66
2024/02/03 03:47:01;;;;;;;72.53;67.15;;;;;;;-2.09;100.00;101944.59;5015378;28;20508;-66
2024/02/03 03:49:32;;;;;;;73.68;67.57;;;;;;;-2.22;100.00;101935.00;5010046;28;20133;-67
2024/02/03 03:52:00;;;;;;;74.13;68.78;;;;;;;-2.43;100.00;101937.13;5012112;28;20046;-67
2024/02/03 03:54:26;;;;;;;75.82;70.25;;;;;;;-2.22;100.00;101928.03;4999489;28;20107;-67
2024/02/03 03:56:53;;;;;;;66.35;61.55;;;;;;;-2.33;100.00;101915.69;5015358;28;20073;-67
2024/02/03 03:59:20;;;;;;;60.53;56.00;;;;;;;-2.73;100.00;101912.00;5008407;28;20057;-67
2024/02/03 04:01:49;;;;;;;63.28;58.53;;;;;;;-2.56;100.00;101896.25;5007930;28;20078;-67
2024/02/03 04:04:17;;;;;;;68.50;63.00;;;;;;;-2.20;100.00;101892.34;5006136;28;20054;-67
2024/02/03 04:06:44;;;;;;;66.35;61.30;;;;;;;-2.04;100.00;101894.81;5008761;28;20213;-66
2024/02/03 04:09:11;;;;;;;67.13;62.13;;;;;;;-1.85;100.00;101891.91;5007738;28;20049;-65
2024/02/03 04:11:39;;;;;;;70.68;65.32;;;;;;;-1.92;100.00;101888.84;5013049;28;20140;-65
2024/02/03 04:14:06;;;;;;;76.60;71.00;;;;;;;-2.11;100.00;101880.53;5009897;28;20046;-66
2024/02/03 04:16:32;;;;;;;68.55;63.25;;;;;;;-1.96;100.00;101876.13;5010042;28;20516;-66
2024/02/03 04:19:00;;;;;;;74.20;68.75;;;;;;;-1.63;100.00;101875.75;5012892;28;20429;-66
2024/02/03 04:21:28;;;;;;;78.97;72.97;;;;;;;-0.88;100.00;101876.00;5008015;28;20145;-66
2024/02/03 04:23:55;;;;;;;84.28;77.82;;;;;;;-0.84;100.00;101882.72;5009880;28;20756;-66
2024/02/03 04:26:22;;;;;;;86.88;80.38;;;;;;;-0.79;100.00;101885.00;5004823;28;20048;-65
2024/02/03 04:28:49;;;;;;;83.85;77.60;;;;;;;-0.50;100.00;101883.03;5007230;28;20050;-66
2024/02/03 04:31:16;;;;;;;91.20;84.10;;;;;;;-0.36;100.00;101867.25;5006256;28;20061;-66
2024/02/03 04:33:45;;;;;;;99.60;92.10;;;;;;;-0.40;100.00;101860.56;5015987;28;20058;-66
2024/02/03 04:36:12;;;;;;;99.88;92.97;;;;;;;-0.50;100.00;101862.16;5007093;28;20046;-66
2024/02/03 04:38:40;;;;;;;103.75;96.25;;;;;;;0.01;100.00;101854.22;5000210;28;20610;-66
2024/02/03 04:41:07;;;;;;;95.70;88.30;;;;;;;-0.32;100.00;101862.66;5007448;28;20056;-66
2024/02/03 04:43:34;;;;;;;101.55;94.75;;;;;;;-0.37;100.00;101854.28;5008417;28;20056;-65
2024/02/03 04:46:01;;;;;;;95.47;88.78;;;;;;;-0.28;100.00;101851.88;5007155;28;20054;-66
2024/02/03 04:48:31;;;;;;;93.93;87.32;;;;;;;-0.29;100.00;101846.78;5007005;28;20131;-66
2024/02/03 04:50:58;;;;;;;96.93;90.05;;;;;;;-0.31;100.00;101843.44;5006835;28;20058;-66
2024/02/03 04:53:25;;;;;;;85.53;79.43;;;;;;;-0.40;100.00;101850.13;5004387;28;20129;-67
2024/02/03 04:55:53;;;;;;;79.65;73.55;;;;;;;-0.43;100.00;101850.34;5005912;28;20437;-68
2024/02/03 04:58:20;;;;;;;88.82;82.43;;;;;;;-0.21;100.00;101851.44;5003787;28;20050;-66
2024/02/03 05:00:47;;;;;;;87.25;81.15;;;;;;;-0.35;100.00;101858.47;5006014;28;20062;-66
2024/02/03 05:03:14;;;;;;;81.93;76.03;;;;;;;-0.21;100.00;101851.44;5007323;28;20100;-65
2024/02/03 05:05:41;;;;;;;85.10;79.00;;;;;;;-0.34;100.00;101854.09;5011054;28;20433;-66
2024/02/03 05:08:08;;;;;;;90.30;84.00;;;;;;;-0.28;100.00;101846.66;5006344;28;20064;-66
2024/02/03 05:10:35;;;;;;;100.40;93.60;;;;;;;-0.52;100.00;101843.13;5005467;28;20573;-66
2024/02/03 05:13:03;;;;;;;75.45;69.85;;;;;;;-0.42;100.00;101843.31;5005523;28;20058;-66
2024/02/03 05:15:30;;;;;;;86.68;80.57;;;;;;;-0.43;100.00;101849.50;5002182;28;20053;-66
2024/02/03 05:17:57;;;;;;;83.05;77.25;;;;;;;-0.10;100.00;101844.53;5009477;28;20526;-66
2024/02/03 05:20:24;;;;;;;71.55;66.05;;;;;;;-0.40;100.00;101850.13;5007632;28;20069;-66
2024/02/03 05:22:51;;;;;;;78.55;72.85;;;;;;;-0.32;100.00;101844.38;5008237;28;20105;-66
2024/02/03 05:25:17;;;;;;;74.15;69.00;;;;;;;-0.42;100.00;101845.94;5002539;28;20058;-66
2024/02/03 05:27:44;;;;;;;75.90;70.60;;;;;;;-0.21;100.00;101843.59;5003898;28;20058;-66
2024/02/03 05:30:14;;;;;;;72.22;67.13;;;;;;;-0.32;100.00;101841.75;5005152;28;20050;-66
2024/02/03 05:32:40;;;;;;;71.80;66.78;;;;;;;-0.14;100.00;101850.91;5003561;28;20058;-67
2024/02/03 05:35:08;;;;;;;73.38;68.30;;;;;;;-0.02;100.00;101850.03;5004218;28;20050;-67
2024/02/03 05:37:35;;;;;;;73.97;68.97;;;;;;;-0.03;100.00;101847.53;5007089;28;20425;-68
2024/02/03 05:40:03;;;;;;;77.88;72.70;;;;;;;-0.01;100.00;101851.69;5005321;28;20060;-67
2024/02/03 05:42:30;;;;;;;78.25;72.75;;;;;;;-0.10;100.00;101851.53;5004432;28;20108;-68
2024/02/03 05:44:57;;;;;;;74.00;68.72;;;;;;;-0.04;100.00;101848.47;5006028;28;20902;-67
2024/02/03 05:47:26;;;;;;;76.85;71.63;;;;;;;0.26;100.00;101847.22;4999358;28;20418;-67
2024/02/03 05:49:53;;;;;;;79.15;73.90;;;;;;;0.19;100.00;101841.63;5006601;28;20054;-67
2024/02/03 05:52:20;;;;;;;81.18;75.47;;;;;;;0.31;100.00;101847.72;5010543;28;20049;-66
2024/02/03 05:54:48;;;;;;;74.65;69.72;;;;;;;0.42;100.00;101842.53;5005324;28;20056;-66
2024/02/03 05:57:15;;;;;;;69.60;65.00;;;;;;;0.19;100.00;101833.78;5004061;28;20053;-68
2024/02/03 05:59:44;;;;;;;71.03;66.22;;;;;;;0.18;100.00;101840.78;5005017;28;20064;-66
2024/02/03 06:02:11;;;;;;;66.18;61.58;;;;;;;0.30;100.00;101841.66;5004998;28;20488;-67
2024/02/03 06:04:50;;;;;;;75.43;70.43;;;;;;;0.39;100.00;101841.00;5006297;28;20049;-66
2024/02/03 06:07:18;;;;;;;70.32;65.47;;;;;;;0.29;100.00;101852.22;5002431;28;20045;-66
2024/02/03 06:09:44;;;;;;;73.38;68.53;;;;;;;0.18;100.00;101851.25;5004586;28;20057;-67
2024/02/03 06:12:11;;;;;;;69.25;64.63;;;;;;;0.32;100.00;101852.00;5005747;28;20054;-66
2024/02/03 06:14:43;;;;;;;71.32;66.22;;;;;;;0.29;100.00;101852.22;5004250;28;20046;-65
2024/02/03 06:17:10;;;;;;;61.60;57.38;;;;;;;0.27;100.00;101844.47;4995007;28;20054;-67
2024/02/03 06:19:41;;;;;;;61.65;57.30;;;;;;;0.35;100.00;101846.56;5007974;28;20049;-66
2024/02/03 06:22:08;;;;;;;67.78;63.17;;;;;;;0.40;100.00;101839.22;4998592;28;20057;-67
2024/02/03 06:24:35;;;;;;;70.78;66.07;;;;;;;0.28;100.00;101845.34;5005647;28;20056;-66
2024/02/03 06:27:02;;;;;;;69.38;64.47;;;;;;;0.41;100.00;101840.88;5001792;28;20101;-67
2024/02/03 06:29:29;;;;;;;66.15;61.65;;;;;;;0.35;100.00;101846.56;5005165;28;20046;-67
2024/02/03 06:31:56;;;;;;;63.10;58.80;;;;;;;0.22;100.00;101842.22;5007397;28;20050;-69
2024/02/03 06:34:22;;;;;;;73.07;68.05;;;;;;;0.43;100.00;101839.81;5007196;28;20520;-68
2024/02/03 06:36:52;;;;;;;83.10;77.70;;;;;;;0.66;100.00;101845.13;4999218;28;20057;-68
2024/02/03 06:39:19;;;;;;;85.90;80.20;;;;;;;0.77;100.00;101839.94;5001777;28;20968;-68
2024/02/03 06:41:46;;;;;;;83.75;78.05;;;;;;;1.05;100.00;101845.72;5005250;28;20506;-68
2024/02/03 06:44:13;;;;;;;97.57;91.03;;;;;;;1.57;100.00;101857.41;5012568;28;20136;-70
2024/02/03 06:46:42;;;;;;;107.88;100.63;;;;;;;2.96;100.00;101861.88;5005606;28;20054;-70
2024/02/03 06:49:09;;;;;;;107.68;100.68;;;;;;;3.01;100.00;101861.50;5005767;28;20046;-67
2024/02/03 06:51:36;;;;;;;93.45;87.35;;;;;;;2.43;100.00;101861.09;4999745;28;20064;-68
2024/02/03 06:54:05;;;;;;;85.78;80.07;;;;;;;2.44;100.00;101860.94;4994405;28;20057;-68
2024/02/03 06:56:32;;;;;;;79.85;74.57;;;;;;;2.87;100.00;101843.47;4994538;28;20046;-68
2024/02/03 06:58:59;;;;;;;79.25;73.90;;;;;;;3.18;100.00;101839.94;4995999;28;20144;-67
2024/02/03 07:01:26;;;;;;;72.97;68.18;;;;;;;3.33;100.00;101829.06;4988283;28;20707;-68
2024/02/03 07:03:53;;;;;;;63.60;59.20;;;;;;;3.65;100.00;101828.91;4994492;28;20058;-67
2024/02/03 07:06:19;;;;;;;49.20;45.50;;;;;;;3.58;100.00;101823.38;5001535;28;20649;-65
2024/02/03 07:08:46;;;;;;;50.33;46.67;;;;;;;3.88;100.00;101825.13;4992215;28;20062;-66
2024/02/03 07:11:15;;;;;;;40.47;37.58;;;;;;;3.67;100.00;101816.50;4994283;28;20165;-65
2024/02/03 07:13:42;;;;;;;35.45;32.75;;;;;;;3.89;100.00;101823.31;4994195;28;20049;-65
2024/02/03 07:16:09;;;;;;;36.25;33.53;;;;;;;4.13;100.00;101810.63;4994469;28;20053;-66
2024/02/03 07:18:36;;;;;;;32.35;29.85;;;;;;;4.58;100.00;101806.63;4996278;28;20081;-66
2024/02/03 07:21:03;;;;;;;32.58;30.00;;;;;;;4.65;100.00;101817.41;4988730;28;20751;-68
2024/02/03 07:23:30;;;;;;;31.83;29.40;;;;;;;3.82;100.00;101817.78;4997280;28;20125;-67
2024/02/03 07:25:57;;;;;;;32.38;29.88;;;;;;;4.58;100.00;101807.44;4995998;28;20094;-68
2024/02/03 07:28:25;;;;;;;32.38;29.80;;;;;;;4.27;100.00;101812.03;4992689;28;20047;-68
2024/02/03 07:30:52;;;;;;;28.67;26.42;;;;;;;4.41;100.00;101809.94;5005531;28;20456;-68
2024/02/03 07:33:19;;;;;;;31.13;28.65;;;;;;;4.81;100.00;101815.03;4994686;28;21029;-68
2024/02/03 07:35:46;;;;;;;34.85;31.45;;;;;;;4.71;100.00;101807.16;4992600;28;20058;-67
2024/02/03 07:38:13;;;;;;;33.15;30.58;;;;;;;4.79;100.00;101803.81;4997615;28;20049;-66
2024/02/03 07:40:39;;;;;;;29.00;26.60;;;;;;;4.72;100.00;101810.59;4996244;28;20054;-66
2024/02/03 07:43:06;;;;;;;26.42;24.23;;;;;;;5.33;100.00;101804.09;4997779;28;20048;-66
2024/02/03 07:45:34;;;;;;;28.60;26.30;;;;;;;5.32;100.00;101810.31;4996069;28;20046;-66
2024/02/03 07:48:01;;;;;;;31.02;28.63;;;;;;;4.76;100.00;101806.75;4996054;28;20072;-66
2024/02/03 07:50:28;;;;;;;26.70;24.60;;;;;;;5.14;100.00;101807.59;4999133;28;20077;-68
2024/02/03 07:52:55;;;;;;;25.92;23.92;;;;;;;5.42;100.00;101804.03;4997787;28;20062;-68
2024/02/03 07:55:22;;;;;;;25.90;23.90;;;;;;;5.88;100.00;101785.63;4997458;28;20050;-68
2024/02/03 07:57:49;;;;;;;26.63;24.65;;;;;;;5.53;100.00;101775.81;4994825;28;20065;-68
2024/02/03 08:00:17;;;;;;;26.20;24.30;;;;;;;6.01;100.00;101765.00;4994987;28;20050;-68
2024/02/03 08:02:45;;;;;;;23.42;21.83;;;;;;;6.04;100.00;101780.53;4995604;28;20064;-68
2024/02/03 08:05:12;;;;;;;28.05;26.05;;;;;;;5.91;100.00;101767.69;4993919;28;20050;-68
2024/02/03 08:07:40;;;;;;;25.58;23.73;;;;;;;5.61;100.00;101770.66;4999696;28;20441;-68
2024/02/03 08:10:08;;;;;;;27.27;25.17;;;;;;;6.16;100.00;101765.31;4993318;28;20060;-68
2024/02/03 08:12:35;;;;;;;23.05;21.35;;;;;;;5.51;100.00;101771.53;4992369;28;20058;-68
2024/02/03 08:15:02;;;;;;;22.30;20.60;;;;;;;6.40;100.00;101756.78;4994003;28;20394;-68
2024/02/03 08:17:29;;;;;;;24.58;22.70;;;;;;;6.52;100.00;101758.19;4995799;28;20054;-68
2024/02/03 08:19:59;;;;;;;23.83;22.02;;;;;;;6.64;100.00;101761.41;4990855;28;20054;-68
2024/02/03 08:22:26;;;;;;;23.38;21.60;;;;;;;6.42;100.00;101773.28;5001021;28;20085;-68
2024/02/03 08:24:53;;;;;;;23.60;21.70;;;;;;;7.04;100.00;101760.81;4994019;28;20060;-68
2024/02/03 08:27:20;;;;;;;24.10;22.20;;;;;;;6.85;100.00;101767.16;5005948;28;20057;-68
2024/02/03 08:29:47;;;;;;;26.00;24.10;;;;;;;6.78;100.00;101766.13;4996464;28;20050;-68
2024/02/03 08:32:14;;;;;;;23.27;21.58;;;;;;;6.63;100.00;101767.69;4991735;28;20507;-67
2024/02/03 08:34:41;;;;;;;23.92;22.20;;;;;;;6.60;100.00;101766.19;4993654;28;20050;-68
2024/02/03 08:37:09;;;;;;;24.58;22.77;;;;;;;6.89;100.00;101765.84;4999194;28;20407;-68
2024/02/03 08:39:36;;;;;;;24.17;22.42;;;;;;;6.57;100.00;101770.94;4996672;28;20793;-68
2024/02/03 08:42:05;;;;;;;23.58;21.88;;;;;;;6.97;100.00;101766.91;5003292;28;20064;-68
2024/02/03 08:44:32;;;;;;;23.33;21.52;;;;;;;7.15;100.00;101769.47;5007153;28;20652;-68
2024/02/03 08:46:59;;;;;;;24.60;22.80;;;;;;;8.34;100.00;101769.28;5002933;28;20058;-68
2024/02/03 08:49:28;;;;;;;26.42;24.50;;;;;;;7.65;100.00;101760.72;4997642;28;20520;-68
2024/02/03 08:51:55;;;;;;;24.52;22.63;;;;;;;7.50;100.00;101753.44;4994826;28;20076;-70
2024/02/03 08:54:23;;;;;;;27.00;24.70;;;;;;;7.08;100.00;101740.19;4997123;28;20137;-69
2024/02/03 08:56:50;;;;;;;26.08;24.08;;;;;;;6.84;100.00;101752.31;5000974;28;20061;-69
2024/02/03 08:59:17;;;;;;;27.35;25.25;;;;;;;7.23;100.00;101751.00;4999793;28;20161;-70
2024/02/03 09:01:44;;;;;;;24.73;22.92;;;;;;;7.58;100.00;101742.03;4999428;28;20490;-70
2024/02/03 09:04:11;;;;;;;24.58;22.77;;;;;;;7.31;100.00;101746.56;4993439;28;20056;-70
2024/02/03 09:06:38;;;;;;;25.90;24.00;;;;;;;6.94;100.00;101738.16;4998798;28;20785;-70
2024/02/03 09:09:05;;;;;;;28.05;25.83;;;;;;;8.12;100.00;101739.00;4997236;28;20058;-70
2024/02/03 09:11:34;;;;;;;25.70;23.70;;;;;;;8.24;100.00;101733.22;4997392;28;20143;-70
2024/02/03 09:14:03;;;;;;;27.67;25.58;;;;;;;7.29;100.00;101726.56;4991552;28;20060;-70
2024/02/03 09:16:30;;;;;;;24.25;22.35;;;;;;;7.87;100.00;101724.94;4999976;28;20050;-70
2024/02/03 09:18:57;;;;;;;25.38;23.38;;;;;;;7.25;100.00;101712.84;4997572;28;20141;-70
2024/02/03 09:21:23;;;;;;;25.33;23.35;;;;;;;7.05;100.00;101725.50;4993511;28;20061;-70
2024/02/03 09:23:50;;;;;;;29.02;26.83;;;;;;;7.63;100.00;101725.72;4997715;28;20062;-71
2024/02/03 09:26:17;;;;;;;27.48;25.38;;;;;;;8.25;100.00;101694.31;5000322;28;20058;-70
2024/02/03 09:28:45;;;;;;;24.92;23.02;;;;;;;7.83;100.00;101702.44;4999897;28;20065;-70
2024/02/03 09:31:18;;;;;;;25.55;23.55;;;;;;;7.76;100.00;101707.53;5002257;28;20066;-70
2024/02/03 09:33:45;;;;;;;;;;;;;;;7.63;100.00;101700.09;4999402;28;20072;-70
2024/02/03 09:36:12;;;;;;;32.33;30.00;;;;;;;8.44;100.00;101703.75;4992509;28;20364;-70
2024/02/03 09:38:39;;;;;;;24.00;22.10;;;;;;;8.03;100.00;101696.66;5000725;28;20046;-70
2024/02/03 09:41:06;;;;;;;25.55;23.55;;;;;;;9.05;100.00;101694.34;4996822;28;20057;-70
2024/02/03 09:43:33;;;;;;;28.25;26.15;;;;;;;8.04;100.00;101697.47;4998325;28;20056;-68
2024/02/03 09:46:02;;;;;;;29.85;27.67;;;;;;;7.55;100.00;101682.38;4997124;28;20054;-68
2024/02/03 09:48:32;;;;;;;25.75;23.85;;;;;;;8.06;100.00;101669.03;4999600;28;20473;-68
2024/02/03 09:51:00;;;;;;;27.45;25.23;;;;;;;7.68;100.00;101668.69;4989349;28;20592;-70
2024/02/03 09:53:28;;;;;;;29.23;27.05;;;;;;;7.75;100.00;101653.84;4997086;28;20612;-68
2024/02/03 09:55:56;;;;;;;28.13;26.00;;;;;;;7.67;100.00;101660.94;4999013;28;20065;-68
2024/02/03 09:58:23;;;;;;;26.55;24.45;;;;;;;7.83;100.00;101654.81;4993759;28;20050;-70
2024/02/03 10:00:52;;;;;;;26.80;24.70;;;;;;;8.48;100.00;101620.38;5000346;28;20064;-70
2024/02/03 10:03:20;;;;;;;27.38;25.27;;;;;;;7.71;100.00;101639.25;5002601;28;20058;-70
2024/02/03 10:05:50;;;;;;;29.98;27.67;;;;;;;9.04;100.00;101641.50;4995970;28;20070;-68
2024/02/03 10:08:17;;;;;;;25.27;23.27;;;;;;;9.05;100.00;101633.41;4998159;28;20101;-68
2024/02/03 10:10:44;;;;;;;25.30;23.30;;;;;;;9.05;100.00;101627.28;5000329;28;20046;-69
2024/02/03 10:13:11;;;;;;;29.70;27.48;;;;;;;8.98;100.00;101621.81;4998319;28;20593;-70
2024/02/03 10:15:39;;;;;;;24.42;22.42;;;;;;;9.35;100.00;101625.63;4996252;28;20060;-68
2024/02/03 10:18:08;;;;;;;23.70;21.80;;;;;;;8.92;100.00;101619.88;4995115;28;20057;-70
2024/02/03 10:20:36;;;;;;;23.58;21.67;;;;;;;9.03;100.00;101602.75;5003279;28;20513;-69
2024/02/03 10:23:04;;;;;;;26.60;24.50;;;;;;;9.24;100.00;101608.28;4996467;28;20605;-70
2024/02/03 10:25:31;;;;;;;23.70;21.80;;;;;;;9.60;100.00;101605.03;4996045;28;20049;-68
2024/02/03 10:28:03;;;;;;;23.77;21.88;;;;;;;9.38;100.00;101599.56;4997385;28;20505;-70
2024/02/03 10:30:31;;;;;;;29.88;27.58;;;;;;;9.04;100.00;101599.94;4999658;28;20529;-70
2024/02/03 10:33:02;;;;;;;27.88;25.77;;;;;;;10.15;100.00;101598.56;4998787;28;20104;-68
2024/02/03 10:35:33;;;;;;;25.20;23.20;;;;;;;9.54;100.00;101595.97;4998016;28;20046;-70
2024/02/03 10:38:02;;;;;;;26.10;24.00;;;;;;;9.45;100.00;101588.25;4996708;28;20057;-68
2024/02/03 10:40:31;;;;;;;29.98;27.75;;;;;;;10.55;100.00;101577.91;4992993;28;20077;-68
2024/02/03 10:43:00;;;;;;;26.85;24.85;;;;;;;8.86;100.00;101564.91;4998640;28;20050;-68
2024/02/03 10:45:28;;;;;;;24.80;22.80;;;;;;;9.35;100.00;101562.81;4997035;28;20065;-70
2024/02/03 10:47:57;;;;;;;24.58;22.58;;;;;;;8.68;100.00;101555.44;4995364;28;20076;-68
2024/02/03 10:50:30;;;;;;;29.92;27.67;;;;;;;9.16;100.00;101550.81;4994402;28;20054;-68
2024/02/03 10:53:06;;;;;;;25.15;23.15;;;;;;;8.63;100.00;101573.66;4998809;28;20116;-68
2024/02/03 10:55:35;;;;;;;24.50;22.60;;;;;;;8.32;100.00;101551.53;4997885;28;20065;-67
2024/02/03 10:58:05;;;;;;;26.45;24.40;;;;;;;9.07;100.00;101549.22;4992846;28;20084;-68
2024/02/03 11:00:32;;;;;;;27.20;25.20;;;;;;;8.64;100.00;101534.75;4992652;28;20054;-68
2024/02/03 11:03:03;;;;;;;23.45;21.73;;;;;;;9.02;100.00;101551.59;5001086;28;20068;-68
2024/02/03 11:05:31;;;;;;;23.92;22.13;;;;;;;9.52;100.00;101542.28;4994475;28;20112;-68